Airfield :
LOGIN :

Register | Disclaimer

   EN    FR    IT 

 










Legend :    VFR   Marginal VFR   IFR   Intensive IFR   Very Intensive IFR
Visi :
Ceiling :
>= 8 km
>= 3000ft
5 to 8 km
1000 to 3000 ft
1500m to 5 km
500 to 1000 ft
800 to 1500m
200 to 500 ft
< 800m
< 200 ft
Symbols :   Thunderstorms  Fog  Heavy snow  Heavy precipitations  Wind > 20 kt
SIGMETs :     Misc.  Thunderstorms  Icing  Turbulence  Mountain Waves  Volcanic Ashes







- Airport Elevation : 69 ft
- IATA code : AES


ENAL - Ålesund

CURRENT METAR :
  • 181550Z 20014KT 9999 BKN038 08/03 Q0996

EXPIRED METARs :
  • 181520Z 20012KT 9999 BKN039 08/03 Q0996
  • 181450Z 19014KT 9999 SCT037 BKN048 08/02 Q0996
  • 181420Z 19015KT 9999 BKN040 08/02 Q0996
  • 181350Z 19013KT 9999 BKN042 09/02 Q0996
  • 181320Z 19013KT 9999 VCSH SCT045 SCT057 09/02 Q0997
  • 181250Z 19010KT 160V230 9999 SCT047 09/02 Q0997

TAF TAF ENAL
Valid from the 18 at 15:00 until the 18 at 23:00 UTC


181400Z 1815/1823 19012KT 9999 FEW035 BKN060
TEMPO 1815/1823 19018G28KT
No reported NOTAMs for that airfield.



MET'MAP, your aeronautical weather chart ! - Copyright ORBIFLY December 2007 - Disclaimer

ORBIFLY MET'MAP TEAM :

Programming & Development : Alexandra Zaïnal
Concept & Development : Baudouin d'Aumeries
Co-Development & Prog : Marc-Olivier Méhu
Technical & hardware support : Manuel Goepfert

Contact : metmap@orbifly.com




SOURCES & CREDITS :

   NOAA